Time;durP1;ratioP1;P1;durP2;ratioP2;P2;SDS_P1;SDS_P2;PMS_P1;PMS_P2;Temp;Humidity;BMP_temperature;BMP_pressure;BME280_temperature;BME280_humidity;BME280_pressure;Samples;Min_cycle;Max_cycle;Signal;HPM_P1;HPM_P2
2023/12/24 00:01:26;;;;;;;;;;;;;;;25.91;39.47;94488.22;4851814;29;7113;-46
2023/12/24 00:03:54;;;;;;;;;;;;;;;25.89;38.73;94490.72;4898611;29;7102;-46
2023/12/24 00:06:22;;;;;;;;;;;;;;;25.88;38.88;94480.97;4977119;28;7978;-49
2023/12/24 00:08:52;;;;;;;;;;;;;;;25.91;39.32;94479.19;5006914;28;7008;-48
2023/12/24 00:11:18;;;;;;;;;;;;;;;25.90;38.70;94474.94;5016904;28;9234;-48
2023/12/24 00:13:45;;;;;;;;;;;;;;;25.90;39.14;94478.44;5011310;28;7059;-47
2023/12/24 00:16:11;;;;;;;;;;;;;;;25.94;39.14;94484.44;5002804;28;7033;-51
2023/12/24 00:18:39;;;;;;;;;;;;;;;25.91;38.36;94485.47;5022517;28;9204;-50
2023/12/24 00:21:08;;;;;;;;;;;;;;;25.90;39.10;94477.72;5014212;28;9081;-46
2023/12/24 00:23:39;;;;;;;;;;;;;;;25.94;38.91;94478.19;5021066;28;9087;-47
2023/12/24 00:26:09;;;;;;;;;;;;;;;25.93;39.15;94469.16;4991517;28;9495;-48
2023/12/24 00:28:36;;;;;;;;;;;;;;;25.92;39.59;94475.94;5018995;28;7187;-48
2023/12/24 00:31:02;;;;;;;;;;;;;;;25.92;38.97;94475.19;4999278;28;9308;-48
2023/12/24 00:33:28;;;;;;;;;;;;;;;25.91;38.54;94463.41;5028021;28;7077;-49
2023/12/24 00:35:56;;;;;;;;;;;;;;;25.92;38.41;94472.44;5002277;28;6935;-47
2023/12/24 00:38:24;;;;;;;;;;;;;;;25.92;38.48;94458.66;5019754;28;7154;-47
2023/12/24 00:40:50;;;;;;;;;;;;;;;25.92;38.32;94459.41;5022077;28;8773;-49
2023/12/24 00:43:16;;;;;;;;;;;;;;;25.90;38.97;94459.16;5003234;28;7433;-51
2023/12/24 00:45:55;;;;;;;;;;;;;;;25.91;38.78;94463.41;4995711;28;8625;-48
2023/12/24 00:48:21;;;;;;;;;;;;;;;25.93;38.63;94466.41;4995818;28;7218;-47
2023/12/24 00:50:47;;;;;;;;;;;;;;;25.93;38.64;94455.38;5017533;28;9784;-48
2023/12/24 00:53:13;;;;;;;;;;;;;;;25.94;38.17;94462.41;5022037;28;9596;-49
2023/12/24 00:55:40;;;;;;;;;;;;;;;25.94;38.18;94461.66;5011751;28;9567;-47
2023/12/24 00:58:06;;;;;;;;;;;;;;;25.92;38.41;94462.16;4986062;28;7033;-48
2023/12/24 01:00:32;;;;;;;;;;;;;;;25.92;38.42;94453.91;4998837;28;7239;-48
2023/12/24 01:03:14;;;;;;;;;;;;;;;25.96;38.38;94457.13;5015788;28;8761;-53
2023/12/24 01:05:55;;;;;;;;;;;;;;;25.92;38.14;94453.91;4994592;28;7313;-53
2023/12/24 01:08:33;;;;;;;;;;;;;;;25.93;38.90;94455.38;5003826;28;7466;-53
2023/12/24 01:10:59;;;;;;;;;;;;;;;25.94;38.28;94447.88;5012065;28;9432;-51
2023/12/24 01:13:29;;;;;;;;;;;;;;;25.91;38.60;94440.63;5014602;28;9681;-53
2023/12/24 01:16:01;;;;;;;;;;;;;;;25.90;38.68;94439.13;4999623;28;8451;-51
2023/12/24 01:18:30;;;;;;;;;;;;;;;25.94;38.44;94443.09;5027946;28;7525;-53
2023/12/24 01:21:05;;;;;;;;;;;;;;;25.94;38.45;94442.34;5008889;28;6938;-52
2023/12/24 01:23:40;;;;;;;;;;;;;;;25.92;38.37;94445.63;4981659;28;7279;-52
2023/12/24 01:26:13;;;;;;;;;;;;;;;25.94;38.35;94445.88;4997220;28;6999;-52
2023/12/24 01:28:40;;;;;;;;;;;;;;;25.94;38.67;94434.09;5020412;28;6923;-54
2023/12/24 01:31:35;;;;;;;;;;;;;;;25.94;38.33;94447.88;5019405;28;7066;-51
2023/12/24 01:34:22;;;;;;;;;;;;;;;25.94;38.01;94442.34;4916017;29;9593;-53
2023/12/24 01:37:36;;;;;;;;;;;;;;;25.93;38.64;94449.88;4911475;29;7376;-53
2023/12/24 01:40:04;;;;;;;;;;;;;;;25.95;38.43;94447.34;4873875;29;8922;-51
2023/12/24 01:42:30;;;;;;;;;;;;;;;25.92;38.79;94453.91;4876525;29;9141;-53
2023/12/24 01:45:04;;;;;;;;;;;;;;;25.92;38.76;94453.91;4889226;29;6974;-53
2023/12/24 01:47:49;;;;;;;;;;;;;;;25.93;38.21;94454.63;4885313;29;8306;-53
2023/12/24 01:50:17;;;;;;;;;;;;;;;25.92;38.69;94458.66;4896128;29;9688;-52
2023/12/24 01:53:14;;;;;;;;;;;;;;;25.89;38.05;94463.19;4874340;29;9045;-53
2023/12/24 01:55:55;;;;;;;;;;;;;;;25.89;38.61;94465.94;4833831;29;9580;-54
2023/12/24 01:58:21;;;;;;;;;;;;;;;25.90;38.20;94456.38;4844787;29;7332;-54
2023/12/24 02:01:04;;;;;;;;;;;;;;;25.85;38.61;94459.94;4830520;29;7500;-53
2023/12/24 02:03:46;;;;;;;;;;;;;;;25.88;38.11;94450.66;4856224;29;7449;-53
2023/12/24 02:06:16;;;;;;;;;;;;;;;25.88;38.30;94458.91;4841620;29;9467;-53
2023/12/24 02:08:58;;;;;;;;;;;;;;;25.89;38.86;94454.16;4863061;29;7261;-53
2023/12/24 02:11:24;;;;;;;;;;;;;;;25.89;38.69;94454.16;4893836;29;7416;-55
2023/12/24 02:14:02;;;;;;;;;;;;;;;25.87;38.46;94451.91;4914552;29;9093;-55
2023/12/24 02:16:35;;;;;;;;;;;;;;;25.88;38.61;94450.66;4921644;28;6984;-55
2023/12/24 02:19:03;;;;;;;;;;;;;;;25.89;38.62;94438.38;4943328;28;6947;-54
2023/12/24 02:21:36;;;;;;;;;;;;;;;25.87;38.54;94435.38;4928608;28;9780;-55
2023/12/24 02:24:23;;;;;;;;;;;;;;;25.88;38.75;94434.13;4954114;28;7275;-55
2023/12/24 02:27:17;;;;;;;;;;;;;;;25.86;38.17;94422.13;4934863;28;8775;-55
2023/12/24 02:30:15;;;;;;;;;;;;;;;25.88;38.72;94436.88;4954563;28;8653;-55
2023/12/24 02:33:34;;;;;;;;;;;;;;;25.84;38.54;94435.63;4899964;29;9232;-55
2023/12/24 02:36:02;;;;;;;;;;;;;;;25.85;38.67;94437.91;4856562;29;8939;-55
2023/12/24 02:39:02;;;;;;;;;;;;;;;25.86;38.23;94427.63;4840695;29;7052;-55
2023/12/24 02:41:29;;;;;;;;;;;;;;;25.88;37.84;94420.34;4841242;29;8335;-56
2023/12/24 02:44:04;;;;;;;;;;;;;;;25.88;38.08;94414.09;4841751;29;7227;-55
2023/12/24 02:46:31;;;;;;;;;;;;;;;25.84;37.94;94408.09;4841053;29;7096;-55
2023/12/24 02:49:00;;;;;;;;;;;;;;;25.86;38.29;94414.59;4826337;29;9135;-55
2023/12/24 02:51:28;;;;;;;;;;;;;;;25.87;38.03;94412.59;4832643;29;9121;-54
2023/12/24 02:54:25;;;;;;;;;;;;;;;25.89;38.21;94424.59;4844651;29;9217;-55
2023/12/24 02:57:01;;;;;;;;;;;;;;;25.84;38.03;94421.88;4782987;29;8738;-54
2023/12/24 02:59:28;;;;;;;;;;;;;;;25.82;37.96;94416.13;4791660;29;8770;-54
2023/12/24 03:01:54;;;;;;;;;;;;;;;25.83;38.53;94426.66;4769713;29;9256;-55
2023/12/24 03:04:20;;;;;;;;;;;;;;;25.80;38.48;94413.88;4791214;29;7159;-55
2023/12/24 03:06:46;;;;;;;;;;;;;;;25.83;38.63;94421.13;4791897;29;7510;-55
2023/12/24 03:09:15;;;;;;;;;;;;;;;25.82;38.29;94416.88;4809334;29;9482;-55
2023/12/24 03:11:45;;;;;;;;;;;;;;;25.80;38.66;94405.63;4870735;29;6988;-54
2023/12/24 03:14:11;;;;;;;;;;;;;;;25.83;37.99;94401.84;4912750;29;7452;-55
2023/12/24 03:16:48;;;;;;;;;;;;;;;25.86;37.78;94406.31;4919079;29;9025;-55
2023/12/24 03:19:14;;;;;;;;;;;;;;;25.85;37.89;94410.34;4888813;29;7134;-54
2023/12/24 03:21:43;;;;;;;;;;;;;;;25.82;38.33;94400.34;4897980;29;7322;-38
2023/12/24 03:24:15;;;;;;;;;;;;;;;25.83;37.91;94410.13;4897216;29;7308;-38
2023/12/24 03:26:49;;;;;;;;;;;;;;;25.83;38.34;94404.59;4899078;29;6963;-38
2023/12/24 03:29:16;;;;;;;;;;;;;;;25.80;38.82;94413.88;4911074;29;7202;-38
2023/12/24 03:31:52;;;;;;;;;;;;;;;25.84;38.02;94421.88;4904995;29;8680;-38
2023/12/24 03:34:40;;;;;;;;;;;;;;;25.85;38.56;94424.13;4983139;28;7288;-38
2023/12/24 03:37:07;;;;;;;;;;;;;;;25.81;38.04;94417.41;5006019;28;7206;-38
2023/12/24 03:39:36;;;;;;;;;;;;;;;25.82;38.32;94424.38;4989568;28;7238;-38
2023/12/24 03:42:02;;;;;;;;;;;;;;;25.83;37.86;94431.41;5009773;28;7299;-38
2023/12/24 03:44:38;;;;;;;;;;;;;;;25.82;37.76;94438.91;4996671;28;9481;-38
2023/12/24 03:47:25;;;;;;;;;;;;;;;25.81;38.82;94436.69;5003849;28;9082;-38
2023/12/24 03:50:13;;;;;;;;;;;;;;;25.81;38.27;94439.44;5009347;28;8787;-38
2023/12/24 03:52:57;;;;;;;;;;;;;;;25.77;38.25;94438.97;4992968;28;7226;-38
2023/12/24 03:55:29;;;;;;;;;;;;;;;25.78;38.51;94440.44;4985332;28;7021;-38
2023/12/24 03:58:10;;;;;;;;;;;;;;;25.78;38.08;94454.22;4995724;28;8960;-38
2023/12/24 04:01:11;;;;;;;;;;;;;;;25.80;38.74;94448.94;4987448;28;7419;-38
2023/12/24 04:03:37;;;;;;;;;;;;;;;25.78;38.16;94443.97;4915170;29;9065;-38
2023/12/24 04:06:22;;;;;;;;;;;;;;;25.77;38.57;94444.47;4915398;29;7321;-38
2023/12/24 04:08:57;;;;;;;;;;;;;;;25.79;38.42;94450.22;4914926;29;9066;-38
2023/12/24 04:11:34;;;;;;;;;;;;;;;25.78;38.69;94451.47;4922915;29;9243;-38
2023/12/24 04:14:01;;;;;;;;;;;;;;;25.78;37.77;94451.47;4932838;29;9117;-38
2023/12/24 04:16:36;;;;;;;;;;;;;;;25.78;37.82;94462.50;4901760;29;7242;-38
2023/12/24 04:19:33;;;;;;;;;;;;;;;25.82;37.61;94454.69;4932447;29;6943;-38
2023/12/24 04:21:59;;;;;;;;;;;;;;;25.77;38.46;94452.75;4865233;29;7369;-38
2023/12/24 04:24:26;;;;;;;;;;;;;;;25.74;37.95;94454.50;4867422;29;7133;-38
2023/12/24 04:26:52;;;;;;;;;;;;;;;25.72;38.38;94448.75;4870359;29;7271;-39
2023/12/24 04:29:18;;;;;;;;;;;;;;;25.71;38.55;94444.50;4877111;29;8745;-38
2023/12/24 04:31:55;;;;;;;;;;;;;;;25.74;38.72;94459.25;4872547;29;9126;-41
2023/12/24 04:34:21;;;;;;;;;;;;;;;25.69;38.01;94452.53;4870392;29;7042;-41
2023/12/24 04:36:47;;;;;;;;;;;;;;;25.73;37.83;94453.00;4853423;29;7427;-40
2023/12/24 04:39:32;;;;;;;;;;;;;;;25.72;38.47;94456.28;4869611;29;7230;-40
2023/12/24 04:42:09;;;;;;;;;;;;;;;25.72;38.61;94459.03;4938646;28;7347;-42
2023/12/24 04:45:06;;;;;;;;;;;;;;;25.73;37.75;94450.25;4951354;28;7001;-39
2023/12/24 04:47:32;;;;;;;;;;;;;;;25.74;37.88;94442.72;4923690;29;9373;-39
2023/12/24 04:50:00;;;;;;;;;;;;;;;25.74;38.24;94443.47;4923762;29;7262;-39
2023/12/24 04:52:26;;;;;;;;;;;;;;;25.78;38.08;94443.19;4926587;29;8946;-39
2023/12/24 04:54:55;;;;;;;;;;;;;;;25.74;38.01;94456.50;4928382;28;7161;-40
2023/12/24 04:57:21;;;;;;;;;;;;;;;25.73;38.31;94458.50;4926257;28;9427;-39
2023/12/24 04:59:47;;;;;;;;;;;;;;;25.69;37.67;94455.28;4901831;29;7275;-39
2023/12/24 05:02:13;;;;;;;;;;;;;;;25.69;38.52;94447.00;4918648;28;7186;-40
2023/12/24 05:04:39;;;;;;;;;;;;;;;25.73;38.24;94447.47;4929741;29;6992;-39
2023/12/24 05:07:07;;;;;;;;;;;;;;;25.69;37.95;94446.25;4917446;29;7312;-40
2023/12/24 05:09:33;;;;;;;;;;;;;;;25.66;38.10;94439.78;4940581;28;6968;-40
2023/12/24 05:11:59;;;;;;;;;;;;;;;25.67;38.61;94444.03;4935397;28;7251;-39
2023/12/24 05:14:29;;;;;;;;;;;;;;;25.64;37.83;94436.78;4920436;28;9457;-39
2023/12/24 05:16:59;;;;;;;;;;;;;;;25.66;38.68;94417.00;4935778;28;7215;-39
2023/12/24 05:19:27;;;;;;;;;;;;;;;25.72;38.36;94417.69;4941441;28;7021;-39
2023/12/24 05:21:54;;;;;;;;;;;;;;;25.68;38.59;94412.47;4935374;28;7232;-40
2023/12/24 05:24:22;;;;;;;;;;;;;;;25.69;37.84;94413.19;4974483;28;8697;-40
2023/12/24 05:26:48;;;;;;;;;;;;;;;25.69;38.11;94418.72;5012541;28;9064;-40
2023/12/24 05:29:14;;;;;;;;;;;;;;;25.69;38.38;94421.47;4997207;28;6988;-39
2023/12/24 05:31:43;;;;;;;;;;;;;;;25.62;38.39;94414.50;5009244;28;7050;-40
2023/12/24 05:34:14;;;;;;;;;;;;;;;25.66;37.86;94433.53;5031433;28;8730;-41
2023/12/24 05:36:47;;;;;;;;;;;;;;;25.66;38.37;94434.28;5000148;28;7146;-40
2023/12/24 05:39:24;;;;;;;;;;;;;;;25.62;37.85;94427.53;4999380;28;7245;-40
2023/12/24 05:41:54;;;;;;;;;;;;;;;25.66;38.59;94431.53;5021553;28;7251;-49
2023/12/24 05:44:22;;;;;;;;;;;;;;;25.65;37.83;94427.25;5004230;28;7300;-47
2023/12/24 05:46:52;;;;;;;;;;;;;;;25.58;38.17;94418.81;5010879;28;7251;-48
2023/12/24 05:49:27;;;;;;;;;;;;;;;25.58;38.52;94422.28;5023138;28;6985;-51
2023/12/24 05:51:56;;;;;;;;;;;;;;;25.56;37.74;94433.06;5016343;28;7033;-49
2023/12/24 05:54:32;;;;;;;;;;;;;;;25.59;38.20;94439.56;5030091;28;7568;-47
2023/12/24 05:57:25;;;;;;;;;;;;;;;25.58;37.86;94436.06;5012280;28;9069;-47
2023/12/24 06:00:22;;;;;;;;;;;;;;;25.57;37.83;94407.03;4972898;28;9521;-50
2023/12/24 06:03:04;;;;;;;;;;;;;;;25.56;38.18;94402.78;4943916;28;7387;-48
2023/12/24 06:05:30;;;;;;;;;;;;;;;25.58;38.58;94400.25;4956674;28;7077;-49
2023/12/24 06:08:05;;;;;;;;;;;;;;;25.56;38.13;94413.78;4957699;28;7311;-49
2023/12/24 06:10:41;;;;;;;;;;;;;;;25.49;38.70;94399.81;4954014;28;6980;-49
2023/12/24 06:13:22;;;;;;;;;;;;;;;25.51;39.14;94400.81;4926039;28;7511;-49
2023/12/24 06:15:56;;;;;;;;;;;;;;;25.50;38.99;94401.31;4962437;28;9062;-47
2023/12/24 06:18:31;;;;;;;;;;;;;;;25.48;38.95;94401.81;4957021;28;7013;-47
2023/12/24 06:21:15;;;;;;;;;;;;;;;25.44;38.52;94404.09;4973756;28;6990;-46
2023/12/24 06:23:52;;;;;;;;;;;;;;;25.44;38.20;94415.13;4956710;28;9550;-52
2023/12/24 06:26:20;;;;;;;;;;;;;;;25.44;39.00;94420.63;4937666;28;7281;-48
2023/12/24 06:28:59;;;;;;;;;;;;;;;25.48;38.69;94418.34;4939310;28;7152;-45
2023/12/24 06:31:43;;;;;;;;;;;;;;;25.45;38.54;94411.09;4963582;28;9073;-47
2023/12/24 06:34:11;;;;;;;;;;;;;;;25.46;38.57;94412.59;4972773;28;9078;-47
2023/12/24 06:36:39;;;;;;;;;;;;;;;25.45;38.36;94421.38;4970702;28;7313;-47
2023/12/24 06:39:06;;;;;;;;;;;;;;;25.42;38.73;94423.16;4993005;28;8928;-50
2023/12/24 06:41:35;;;;;;;;;;;;;;;25.41;38.87;94421.59;4990823;28;9120;-48
2023/12/24 06:44:03;;;;;;;;;;;;;;;25.49;38.38;94416.34;5011569;28;6997;-47
2023/12/24 06:46:32;;;;;;;;;;;;;;;25.51;38.10;94419.34;5006128;28;7126;-46
2023/12/24 06:48:58;;;;;;;;;;;;;;;25.53;38.11;94428.59;5010476;28;9455;-47
2023/12/24 06:51:24;;;;;;;;;;;;;;;25.51;37.97;94428.34;5012422;28;9389;-48
2023/12/24 06:53:53;;;;;;;;;;;;;;;25.55;38.08;94425.31;5002733;28;7446;-48
2023/12/24 06:56:42;;;;;;;;;;;;;;;25.60;38.56;94419.03;5020224;28;8463;-50
2023/12/24 06:59:15;;;;;;;;;;;;;;;25.58;38.30;94424.31;5015807;28;7197;-51
2023/12/24 07:01:47;;;;;;;;;;;;;;;25.54;38.62;94419.06;5016768;28;9381;-49
2023/12/24 07:04:13;;;;;;;;;;;;;;;25.54;38.98;94418.31;4993705;28;6962;-51
2023/12/24 07:06:39;;;;;;;;;;;;;;;25.60;39.00;94410.78;5013178;28;9356;-48
2023/12/24 07:09:06;;;;;;;;;;;;;;;25.63;38.17;94424.28;4999601;28;7233;-50
2023/12/24 07:11:36;;;;;;;;;;;;;;;25.68;38.73;94428.25;4993945;28;9459;-49
2023/12/24 07:14:04;;;;;;;;;;;;;;;25.69;38.12;94436.00;5000027;28;9148;-52
2023/12/24 07:16:30;;;;;;;;;;;;;;;25.67;37.97;94435.75;4996072;28;9095;-47
2023/12/24 07:19:02;;;;;;;;;;;;;;;25.67;38.11;94441.28;5015579;28;7043;-50
2023/12/24 07:21:30;;;;;;;;;;;;;;;25.62;38.66;94444.78;5015860;28;7120;-52
2023/12/24 07:23:56;;;;;;;;;;;;;;;25.64;38.61;94439.56;5011656;28;9530;-52
2023/12/24 07:26:22;;;;;;;;;;;;;;;25.60;38.29;94435.56;4999998;28;8743;-50
2023/12/24 07:28:49;;;;;;;;;;;;;;;25.63;38.91;94438.03;5007472;28;7744;-51
2023/12/24 07:31:16;;;;;;;;;;;;;;;25.64;38.13;94428.53;5009596;28;7409;-49
2023/12/24 07:33:42;;;;;;;;;;;;;;;25.59;38.43;94429.31;4992524;28;7431;-52
2023/12/24 07:36:13;;;;;;;;;;;;;;;25.64;38.36;94439.56;5011297;28;9533;-50
2023/12/24 07:38:39;;;;;;;;;;;;;;;25.68;38.43;94429.00;5007709;28;8776;-48
2023/12/24 07:41:15;;;;;;;;;;;;;;;25.68;38.16;94431.75;4993490;28;9224;-48
2023/12/24 07:43:51;;;;;;;;;;;;;;;25.67;38.40;94435.75;4994718;28;8842;-50
2023/12/24 07:46:19;;;;;;;;;;;;;;;25.65;39.12;94426.50;4995719;28;9462;-49
2023/12/24 07:48:52;;;;;;;;;;;;;;;25.64;39.14;94420.28;5016215;28;9028;-48
2023/12/24 07:51:23;;;;;;;;;;;;;;;25.68;39.08;94431.75;5000106;28;9068;-48
2023/12/24 07:53:51;;;;;;;;;;;;;;;25.63;38.86;94424.28;5005011;28;7164;-52
2023/12/24 07:56:29;;;;;;;;;;;;;;;25.60;38.40;94416.28;5005901;28;9452;-50
2023/12/24 07:58:56;;;;;;;;;;;;;;;25.63;39.14;94412.50;5017050;28;7064;-50
2023/12/24 08:01:21;;;;;;;;;;;;;;;25.57;38.37;94404.28;5002503;28;9077;-39
2023/12/24 08:03:47;;;;;;;;;;;;;;;25.57;38.54;94404.28;4996416;28;9843;-40
2023/12/24 08:06:21;;;;;;;;;;;;;;;25.55;38.68;94395.03;5020298;28;7077;-39
2023/12/24 08:08:51;;;;;;;;;;;;;;;25.54;39.31;94399.03;5017310;28;8766;-41
2023/12/24 08:11:19;;;;;;;;;;;;;;;25.52;39.52;94379.50;4998660;28;7444;-39
2023/12/24 08:13:45;;;;;;;;;;;;;;;25.56;39.51;94377.97;5009447;28;7356;-39
2023/12/24 08:16:11;;;;;;;;;;;;;;;25.64;39.20;94380.94;4995827;28;7221;-41
2023/12/24 08:18:37;;;;;;;;;;;;;;;25.68;38.67;94373.16;4996785;28;7217;-39
2023/12/24 08:21:07;;;;;;;;;;;;;;;25.70;39.06;94365.88;4997671;28;7289;-39
2023/12/24 08:23:37;;;;;;;;;;;;;;;25.77;39.00;94365.34;5000522;28;7237;-39
2023/12/24 08:26:04;;;;;;;;;;;;;;;25.83;39.12;94373.53;4997189;28;7895;-39
2023/12/24 08:28:30;;;;;;;;;;;;;;;25.86;39.20;94378.78;5019831;28;7325;-40
2023/12/24 08:31:05;;;;;;;;;;;;;;;25.91;38.93;94374.47;5023379;28;9225;-41
2023/12/24 08:33:31;;;;;;;;;;;;;;;25.96;38.74;94382.72;5011895;28;7272;-40
2023/12/24 08:35:57;;;;;;;;;;;;;;;25.96;38.90;94388.22;4998992;28;7229;-39
2023/12/24 08:38:24;;;;;;;;;;;;;;;25.95;39.28;94378.44;5018169;28;7205;-39
2023/12/24 08:40:49;;;;;;;;;;;;;;;25.96;38.27;94392.97;5010781;28;7308;-39
2023/12/24 08:43:18;;;;;;;;;;;;;;;25.98;39.23;94393.97;4993814;28;7139;-39
2023/12/24 08:45:46;;;;;;;;;;;;;;;25.96;38.53;94390.97;5001187;28;7068;-40
2023/12/24 08:48:12;;;;;;;;;;;;;;;25.98;38.69;94390.47;5012873;28;7441;-40
2023/12/24 08:50:38;;;;;;;;;;;;;;;25.95;38.34;94377.69;5016619;28;9148;-40
2023/12/24 08:53:04;;;;;;;;;;;;;;;25.95;38.36;94383.97;4997328;28;7250;-40
2023/12/24 08:55:35;;;;;;;;;;;;;;;25.93;39.04;94388.47;4997004;28;7248;-39
2023/12/24 08:58:01;;;;;;;;;;;;;;;25.93;38.77;94400.25;5017200;28;8766;-40
2023/12/24 09:00:28;;;;;;;;;;;;;;;25.91;38.31;94405.53;5001203;28;8348;-40
2023/12/24 09:02:55;;;;;;;;;;;;;;;25.84;38.58;94403.34;5009675;28;9046;-41
2023/12/24 09:05:23;;;;;;;;;;;;;;;25.82;39.30;94408.59;4978837;28;9483;-40
2023/12/24 09:07:49;;;;;;;;;;;;;;;25.83;39.03;94404.59;4997300;28;8754;-39
2023/12/24 09:10:18;;;;;;;;;;;;;;;25.88;38.92;94408.59;5010469;28;7204;-42
2023/12/24 09:12:54;;;;;;;;;;;;;;;25.83;38.92;94401.09;5002352;28;7173;-39
2023/12/24 09:15:21;;;;;;;;;;;;;;;25.84;38.34;94403.34;4999219;28;6991;-40
2023/12/24 09:17:48;;;;;;;;;;;;;;;25.85;39.47;94393.81;4996709;28;7327;-39
2023/12/24 09:20:14;;;;;;;;;;;;;;;25.87;38.53;94404.31;5015882;28;7273;-39
2023/12/24 09:22:39;;;;;;;;;;;;;;;25.82;39.27;94394.84;5001978;28;7924;-38
2023/12/24 09:25:07;;;;;;;;;;;;;;;25.85;39.11;94391.06;5014758;28;9270;-39
2023/12/24 09:27:33;;;;;;;;;;;;;;;25.84;39.27;94391.56;5008530;28;7323;-39
2023/12/24 09:30:04;;;;;;;;;;;;;;;25.79;39.27;94384.09;4998971;28;7071;-39
2023/12/24 09:32:33;;;;;;;;;;;;;;;25.80;39.52;94396.59;5000604;28;8966;-38
2023/12/24 09:35:00;;;;;;;;;;;;;;;25.87;39.49;94407.81;4995596;28;7075;-38
2023/12/24 09:37:28;;;;;;;;;;;;;;;25.89;38.94;94396.28;4995455;28;7069;-38
2023/12/24 09:39:57;;;;;;;;;;;;;;;25.90;39.32;94400.56;4991775;28;7029;-38
2023/12/24 09:45:01;;;;;;;;;;;;;;;25.93;38.92;94414.03;4979225;28;7013;-39
2023/12/24 09:47:28;;;;;;;;;;;;;;;26.00;38.80;94421.75;4978321;28;8773;-39
2023/12/24 09:49:54;;;;;;;;;;;;;;;25.99;39.30;94420.25;5003305;28;7585;-39
2023/12/24 09:52:21;;;;;;;;;;;;;;;26.08;38.65;94424.69;4985507;28;8923;-39
2023/12/24 09:54:48;;;;;;;;;;;;;;;26.11;38.77;94426.47;5010961;28;7291;-39
2023/12/24 09:57:14;;;;;;;;;;;;;;;26.06;39.14;94413.44;4991526;28;8716;-39
2023/12/24 09:59:42;;;;;;;;;;;;;;;26.10;38.50;94420.19;5009445;28;7272;-39
2023/12/24 10:02:10;;;;;;;;;;;;;;;26.29;38.89;94414.03;4989754;28;9087;-39
2023/12/24 10:04:36;;;;;;;;;;;;;;;26.36;38.08;94400.41;5010254;28;7236;-40
2023/12/24 10:07:06;;;;;;;;;;;;;;;26.41;39.09;94410.66;5000369;28;6980;-40
2023/12/24 10:09:57;;;;;;;;;;;;;;;26.40;38.70;94403.66;4992256;28;9148;-40
2023/12/24 10:12:27;;;;;;;;;;;;;;;26.41;38.80;94401.63;4991136;28;7202;-39
2023/12/24 10:14:58;;;;;;;;;;;;;;;26.37;38.67;94390.16;5008232;28;7449;-40
2023/12/24 10:17:29;;;;;;;;;;;;;;;26.35;37.97;94392.66;5012507;28;7271;-40
2023/12/24 10:19:56;;;;;;;;;;;;;;;26.32;38.56;94397.19;5007673;28;7459;-40
2023/12/24 10:22:28;;;;;;;;;;;;;;;26.28;38.29;94382.97;5006743;28;7264;-40
2023/12/24 10:25:27;;;;;;;;;;;;;;;26.23;38.67;94378.22;5008084;28;8735;-39
2023/12/24 10:28:05;;;;;;;;;;;;;;;26.19;39.00;94385.31;4916903;29;7376;-39
2023/12/24 10:30:40;;;;;;;;;;;;;;;26.22;38.56;94376.75;4932240;29;9237;-39
2023/12/24 10:33:09;;;;;;;;;;;;;;;26.27;39.04;94370.44;4897925;29;7709;-40
2023/12/24 10:35:36;;;;;;;;;;;;;;;26.32;39.25;94375.16;4913581;29;9535;-40
2023/12/24 10:38:16;;;;;;;;;;;;;;;26.33;38.89;94371.13;4914174;29;7492;-39
2023/12/24 10:40:42;;;;;;;;;;;;;;;26.24;39.08;94365.19;4897977;29;9407;-39
2023/12/24 10:43:08;;;;;;;;;;;;;;;26.17;39.33;94372.78;4898294;29;6998;-39
2023/12/24 10:45:43;;;;;;;;;;;;;;;26.15;39.79;94349.75;4897173;29;7846;-39
2023/12/24 10:48:21;;;;;;;;;;;;;;;26.09;39.50;94358.06;4913230;29;8812;-39
2023/12/24 10:51:00;;;;;;;;;;;;;;;26.04;40.57;94350.56;4909913;29;6983;-37
2023/12/24 10:53:29;;;;;;;;;;;;;;;26.06;40.34;94353.56;4911721;29;7074;-37
2023/12/24 10:56:17;;;;;;;;;;;;;;;26.05;40.29;94348.56;4894950;29;7272;-37
2023/12/24 10:59:15;;;;;;;;;;;;;;;26.03;39.71;94340.06;4913308;29;9423;-37
2023/12/24 11:01:56;;;;;;;;;;;;;;;26.03;39.75;94338.03;4897343;29;6871;-37
2023/12/24 11:04:51;;;;;;;;;;;;;;;26.08;40.16;94333.72;4962769;28;9069;-37
2023/12/24 11:07:47;;;;;;;;;;;;;;;26.04;40.31;94336.78;4982994;28;8758;-37
2023/12/24 11:10:36;;;;;;;;;;;;;;;26.05;39.90;94324.50;4965982;28;7966;-37
2023/12/24 11:13:31;;;;;;;;;;;;;;;26.08;39.67;94325.47;4975472;28;8592;-37
2023/12/24 11:16:02;;;;;;;;;;;;;;;26.08;39.12;94329.00;4981609;28;7070;-37
2023/12/24 11:19:20;;;;;;;;;;;;;;;26.07;38.76;94324.75;4996017;28;7007;-37
2023/12/24 11:22:06;;;;;;;;;;;;;;;26.04;39.20;94331.28;4989428;28;7232;-37
2023/12/24 11:24:42;;;;;;;;;;;;;;;26.02;39.06;94314.50;4974258;28;7850;-37
2023/12/24 11:27:19;;;;;;;;;;;;;;;25.99;39.34;94304.50;4973410;28;7041;-37
2023/12/24 11:29:52;;;;;;;;;;;;;;;26.00;39.12;94303.25;4990162;28;9180;-37
2023/12/24 11:32:36;;;;;;;;;;;;;;;26.00;39.66;94317.03;4969024;28;7335;-37
2023/12/24 11:35:55;;;;;;;;;;;;;;;26.03;39.94;94313.22;4978299;28;7518;-37
2023/12/24 11:38:33;;;;;;;;;;;;;;;26.01;40.09;94306.75;4920624;29;7208;-37
2023/12/24 11:41:07;;;;;;;;;;;;;;;26.01;39.21;94295.75;4931490;29;9198;-37
2023/12/24 11:43:35;;;;;;;;;;;;;;;25.99;39.65;94287.25;4937918;29;8603;-37
2023/12/24 11:46:02;;;;;;;;;;;;;;;25.97;40.21;94290.50;4939042;28;7463;-36
2023/12/24 11:48:37;;;;;;;;;;;;;;;25.99;39.67;94284.50;4937921;29;7050;-37
2023/12/24 11:51:12;;;;;;;;;;;;;;;26.03;39.25;94282.19;4938484;28;7256;-37
2023/12/24 11:53:40;;;;;;;;;;;;;;;26.05;39.29;94283.16;4936539;29;9518;-38
2023/12/24 11:56:24;;;;;;;;;;;;;;;26.04;39.22;94278.91;4935854;29;9474;-37
2023/12/24 11:58:55;;;;;;;;;;;;;;;26.07;39.45;94280.63;4937455;29;7491;-38
2023/12/24 12:01:34;;;;;;;;;;;;;;;26.07;39.19;94269.63;4937124;28;8873;-38
2023/12/24 12:04:26;;;;;;;;;;;;;;;26.07;39.11;94260.59;4938204;28;9598;-38
2023/12/24 12:06:54;;;;;;;;;;;;;;;26.08;39.02;94276.63;4929324;29;7104;-37
2023/12/24 12:09:27;;;;;;;;;;;;;;;26.08;38.39;94287.66;4937326;28;8642;-38
2023/12/24 12:11:54;;;;;;;;;;;;;;;26.07;38.78;94277.88;4924325;29;7332;-38
2023/12/24 12:14:22;;;;;;;;;;;;;;;26.05;38.80;94272.16;4963383;28;6961;-37
2023/12/24 12:16:50;;;;;;;;;;;;;;;26.02;38.66;94269.66;4999378;28;7066;-37
2023/12/24 12:19:23;;;;;;;;;;;;;;;26.03;39.22;94266.38;4991564;28;8698;-38
2023/12/24 12:21:50;;;;;;;;;;;;;;;26.02;38.53;94259.38;4991873;28;8891;-38
2023/12/24 12:24:24;;;;;;;;;;;;;;;26.05;37.93;94272.16;4993161;28;7616;-38
2023/12/24 12:26:56;;;;;;;;;;;;;;;26.02;38.14;94266.91;4973974;28;9047;-38
2023/12/24 12:29:33;;;;;;;;;;;;;;;26.03;38.26;94277.41;4974427;28;9072;-37
2023/12/24 12:32:01;;;;;;;;;;;;;;;26.04;38.33;94289.19;4988281;28;7231;-38
2023/12/24 12:34:28;;;;;;;;;;;;;;;26.02;38.50;94278.69;4976877;28;6852;-38
2023/12/24 12:36:56;;;;;;;;;;;;;;;26.04;38.74;94287.19;4990908;28;9090;-38
2023/12/24 12:39:36;;;;;;;;;;;;;;;26.02;38.73;94292.47;4992511;28;7038;-37
2023/12/24 12:42:04;;;;;;;;;;;;;;;26.05;38.11;94285.16;4972329;28;7517;-37
2023/12/24 12:44:32;;;;;;;;;;;;;;;26.04;38.51;94300.97;5002370;28;7231;-37
2023/12/24 12:46:58;;;;;;;;;;;;;;;26.05;38.27;94298.94;4992674;28;6985;-38
2023/12/24 12:49:25;;;;;;;;;;;;;;;26.05;38.02;94290.69;4987442;28;6986;-37
2023/12/24 12:51:56;;;;;;;;;;;;;;;26.02;38.79;94292.47;4977525;28;8797;-37
2023/12/24 12:54:23;;;;;;;;;;;;;;;26.04;38.50;94297.44;4975821;28;9058;-38
2023/12/24 12:57:05;;;;;;;;;;;;;;;26.04;38.18;94291.94;4974462;28;10202;-37
2023/12/24 12:59:37;;;;;;;;;;;;;;;26.00;37.86;94294.22;4977759;28;8808;-37
2023/12/24 13:02:04;;;;;;;;;;;;;;;25.99;38.45;94290.72;4979622;28;7174;-37
2023/12/24 13:04:37;;;;;;;;;;;;;;;26.04;37.98;94302.97;4990506;28;7032;-37
2023/12/24 13:07:28;;;;;;;;;;;;;;;26.03;38.47;94293.94;4991523;28;7248;-37
2023/12/24 13:10:04;;;;;;;;;;;;;;;26.04;37.88;94294.69;4989762;28;7431;-37
2023/12/24 13:12:30;;;;;;;;;;;;;;;26.00;38.37;94299.75;4989933;28;8919;-54
2023/12/24 13:14:58;;;;;;;;;;;;;;;26.04;38.22;94303.72;4977318;28;7570;-53
2023/12/24 13:17:27;;;;;;;;;;;;;;;26.03;38.54;94291.19;4975273;28;9042;-53
2023/12/24 13:19:54;;;;;;;;;;;;;;;26.01;38.04;94312.28;4989940;28;7257;-54
2023/12/24 13:22:27;;;;;;;;;;;;;;;26.02;38.23;94325.53;4974831;28;7372;-54
2023/12/24 13:24:56;;;;;;;;;;;;;;;26.01;38.31;94318.50;5000453;28;7272;-54
2023/12/24 13:27:23;;;;;;;;;;;;;;;26.02;38.48;94322.03;4989884;28;8813;-55
2023/12/24 13:29:58;;;;;;;;;;;;;;;26.03;38.11;94310.47;4988843;28;9781;-54